TAF Text Data
IDs:
Format:
Raw Decoded Include METAR

Data at: 1806 UTC 03 Jul 2020

KVLD 031726Z 0318/0418 00000KT P6SM VCTS BKN040CB
  TEMPO 0318/0322 VRB15G25KT 4SM TSRA BKN035CB
  FM040000 12004KT P6SM SCT060